createdAt,value
2022-09-16T00:01:18.632Z,98581.13
2022-09-16T00:03:21.804Z,98577.34
2022-09-16T00:05:27.107Z,98571.84
2022-09-16T00:07:30.122Z,98568.44
2022-09-16T00:09:34.574Z,98576.13
2022-09-16T00:11:36.822Z,98575.97
2022-09-16T00:13:39.206Z,98577.53
2022-09-16T00:15:46.272Z,98577.63
2022-09-16T00:17:48.303Z,98569.09
2022-09-16T00:19:51.146Z,98570.81
2022-09-16T00:21:53.146Z,98564.47
2022-09-16T00:23:56.419Z,98564.78
2022-09-16T00:25:58.527Z,98561.19
2022-09-16T00:28:00.615Z,98556.56
2022-09-16T00:30:02.790Z,98565.63
2022-09-16T00:32:08.148Z,98562.75
2022-09-16T00:34:10.185Z,98560.69
2022-09-16T00:36:20.157Z,98568.00
2022-09-16T00:38:22.184Z,98571.31
2022-09-16T00:40:24.349Z,98564.97
2022-09-16T00:42:26.570Z,98565.50
2022-09-16T00:45:05.780Z,98566.31
2022-09-16T00:47:07.891Z,98570.44
2022-09-16T00:49:22.408Z,98577.59
2022-09-16T00:51:25.746Z,98587.19
2022-09-16T00:53:42.756Z,98597.47
2022-09-16T00:55:46.278Z,98594.75
2022-09-16T00:57:49.352Z,98602.94
2022-09-16T00:59:55.768Z,98603.44
2022-09-16T01:02:05.293Z,98602.41
2022-09-16T01:04:18.355Z,98606.00
2022-09-16T01:06:22.556Z,98611.31
2022-09-16T01:08:25.365Z,98613.03
2022-09-16T01:10:27.654Z,98609.63
2022-09-16T01:12:34.296Z,98609.75
2022-09-16T01:14:55.182Z,98614.38
2022-09-16T01:17:43.880Z,98619.00
2022-09-16T01:20:04.640Z,98621.06
2022-09-16T01:22:06.911Z,98621.91
2022-09-16T01:24:33.735Z,98627.47
2022-09-16T01:26:44.736Z,98635.28
2022-09-16T01:29:08.121Z,98640.75
2022-09-16T01:31:29.548Z,98647.09
2022-09-16T01:33:59.915Z,98635.28
2022-09-16T01:36:42.820Z,98634.75
2022-09-16T01:39:05.331Z,98635.59
2022-09-16T01:41:19.464Z,98640.31
2022-09-16T01:43:28.879Z,98632.63
2022-09-16T01:45:40.274Z,98638.81
2022-09-16T01:48:27.793Z,98634.19
2022-09-16T01:50:33.967Z,98643.59
2022-09-16T01:52:38.778Z,98638.81
2022-09-16T01:54:55.034Z,98647.03
2022-09-16T01:57:18.520Z,98643.91
2022-09-16T01:59:34.371Z,98646.50
2022-09-16T02:01:57.446Z,98639.38
2022-09-16T02:04:07.189Z,98637.63
2022-09-16T02:06:31.825Z,98641.22
2022-09-16T02:08:50.078Z,98633.34
2022-09-16T02:10:58.567Z,98651.34
2022-09-16T02:13:09.514Z,98641.88
2022-09-16T02:15:18.943Z,98642.19
2022-09-16T02:17:25.695Z,98653.47
2022-09-16T02:19:37.434Z,98649.56
2022-09-16T02:21:45.633Z,98649.72
2022-09-16T02:23:53.583Z,98655.31
2022-09-16T02:25:57.610Z,98654.31
2022-09-16T02:28:05.539Z,98662.22
2022-09-16T02:30:17.235Z,98664.44
2022-09-16T02:32:22.792Z,98677.94
2022-09-16T02:34:32.828Z,98675.38
2022-09-16T02:36:38.245Z,98685.63
2022-09-16T02:38:47.786Z,98685.56
2022-09-16T02:40:59.977Z,98678.19
2022-09-16T02:43:03.374Z,98686.78
2022-09-16T02:45:05.981Z,98687.31
2022-09-16T02:47:47.291Z,98693.28
2022-09-16T02:50:02.003Z,98694.31
2022-09-16T02:52:13.174Z,98694.84
2022-09-16T02:54:24.717Z,98695.47
2022-09-16T02:56:37.841Z,98697.09
2022-09-16T02:58:40.055Z,98702.84
2022-09-16T03:00:47.724Z,98696.09
2022-09-16T03:02:50.159Z,98691.31
2022-09-16T03:04:52.810Z,98685.84
2022-09-16T03:06:54.986Z,98682.97
2022-09-16T03:09:00.706Z,98699.00
2022-09-16T03:11:35.162Z,98699.13
2022-09-16T03:13:55.289Z,98700.16
2022-09-16T03:16:46.096Z,98707.34
2022-09-16T03:18:56.623Z,98703.81
2022-09-16T03:21:30.527Z,98696.78
2022-09-16T03:23:36.378Z,98697.66
2022-09-16T03:26:04.394Z,98702.44
2022-09-16T03:28:14.302Z,98703.44
2022-09-16T03:30:16.749Z,98710.47
2022-09-16T03:32:28.500Z,98707.06
2022-09-16T03:34:48.843Z,98708.84
2022-09-16T03:36:57.160Z,98702.03
2022-09-16T03:39:01.896Z,98695.72
2022-09-16T03:41:07.458Z,98694.84
2022-09-16T03:43:12.960Z,98691.94
2022-09-16T03:45:17.584Z,98692.97
2022-09-16T03:47:19.743Z,98693.66
2022-09-16T03:49:21.987Z,98701.34
2022-09-16T03:51:25.018Z,98701.34
2022-09-16T03:53:27.163Z,98703.34
2022-09-16T03:55:29.427Z,98701.78
2022-09-16T03:57:32.265Z,98715.66
2022-09-16T03:59:34.405Z,98721.13
2022-09-16T04:01:36.625Z,98721.81
2022-09-16T04:03:39.121Z,98721.97
2022-09-16T04:05:41.354Z,98722.44
2022-09-16T04:07:43.268Z,98721.91
2022-09-16T04:09:45.283Z,98718.75
2022-09-16T04:11:47.317Z,98722.88
2022-09-16T04:13:49.512Z,98723.91
2022-09-16T04:15:52.398Z,98729.00
2022-09-16T04:17:56.405Z,98730.88
2022-09-16T04:19:58.928Z,98725.41
2022-09-16T04:22:01.223Z,98728.41
2022-09-16T04:24:03.542Z,98727.72
2022-09-16T04:26:05.779Z,98734.19
2022-09-16T04:28:09.034Z,98731.78
2022-09-16T04:30:12.067Z,98728.19
2022-09-16T04:32:14.188Z,98732.63
2022-09-16T04:34:16.317Z,98740.53
2022-09-16T04:36:20.280Z,98739.00
2022-09-16T04:38:22.426Z,98734.38
2022-09-16T04:40:24.994Z,98736.38
2022-09-16T04:42:27.024Z,98728.91
2022-09-16T04:44:30.420Z,98736.53
2022-09-16T04:46:32.777Z,98734.50
2022-09-16T04:48:34.917Z,98739.66
2022-09-16T04:50:36.857Z,98735.38
2022-09-16T04:52:39.188Z,98739.66
2022-09-16T04:54:41.289Z,98737.25
2022-09-16T04:56:43.471Z,98739.97
2022-09-16T04:58:49.869Z,98740.28
2022-09-16T05:00:51.759Z,98734.81
2022-09-16T05:02:55.077Z,98741.00
2022-09-16T05:04:57.262Z,98740.28
2022-09-16T05:06:59.565Z,98740.16
2022-09-16T05:09:02.219Z,98738.28
2022-09-16T05:11:10.244Z,98741.00
2022-09-16T05:13:12.161Z,98749.63
2022-09-16T05:15:14.438Z,98754.53
2022-09-16T05:17:39.524Z,98746.47
2022-09-16T05:19:38.384Z,98743.03
2022-09-16T05:21:41.335Z,98739.00
2022-09-16T05:23:47.029Z,98752.66
2022-09-16T05:25:49.787Z,98758.81
2022-09-16T05:27:52.175Z,98751.66
2022-09-16T05:29:54.245Z,98743.25
2022-09-16T05:31:58.747Z,98745.31
2022-09-16T05:34:11.745Z,98750.06
2022-09-16T05:36:18.250Z,98755.22
2022-09-16T05:38:20.482Z,98752.03
2022-09-16T05:40:23.330Z,98761.25
2022-09-16T05:42:25.509Z,98763.41
2022-09-16T05:44:28.927Z,98760.88
2022-09-16T05:46:30.964Z,98765.38
2022-09-16T05:48:34.283Z,98758.16
2022-09-16T05:50:38.883Z,98754.25
2022-09-16T05:52:41.343Z,98761.28
2022-09-16T05:54:43.694Z,98761.47
2022-09-16T05:56:46.780Z,98762.31
2022-09-16T05:58:49.363Z,98762.31
2022-09-16T06:00:52.414Z,98760.28
2022-09-16T06:02:54.578Z,98763.03
2022-09-16T06:04:56.871Z,98762.31
2022-09-16T06:07:00.468Z,98768.09
2022-09-16T06:09:29.786Z,98766.44
2022-09-16T06:11:32.330Z,98765.50
2022-09-16T06:13:37.890Z,98757.06
2022-09-16T06:15:40.374Z,98755.19
2022-09-16T06:17:42.477Z,98755.19
2022-09-16T06:19:44.708Z,98744.25
2022-09-16T06:21:47.206Z,98750.88
2022-09-16T06:23:50.073Z,98745.09
2022-09-16T06:26:22.785Z,98751.19
2022-09-16T06:28:25.089Z,98750.13
2022-09-16T06:30:31.002Z,98747.91
2022-09-16T06:32:34.041Z,98743.88
2022-09-16T06:34:36.583Z,98740.81
2022-09-16T06:36:44.728Z,98748.31
2022-09-16T06:38:48.249Z,98739.66
2022-09-16T06:40:51.425Z,98745.66
2022-09-16T06:42:58.310Z,98740.38
2022-09-16T06:45:04.657Z,98743.41
2022-09-16T06:47:07.151Z,98750.75
2022-09-16T06:49:11.279Z,98758.09
2022-09-16T06:51:16.704Z,98754.06
2022-09-16T06:53:18.877Z,98753.75
2022-09-16T06:55:21.423Z,98757.34
2022-09-16T06:57:23.803Z,98751.00
2022-09-16T06:59:26.280Z,98746.06
2022-09-16T07:01:30.485Z,98743.19
2022-09-16T07:03:33.493Z,98744.03
2022-09-16T07:05:35.977Z,98760.16
2022-09-16T07:07:39.751Z,98776.44
2022-09-16T07:09:42.217Z,98774.00
2022-09-16T07:11:44.854Z,98772.00
2022-09-16T07:13:48.729Z,98778.16
2022-09-16T07:16:11.766Z,98768.22
2022-09-16T07:18:13.798Z,98774.22
2022-09-16T07:20:16.462Z,98779.19
2022-09-16T07:22:21.162Z,98793.56
2022-09-16T07:24:23.612Z,98796.84
2022-09-16T07:26:28.665Z,98790.22
2022-09-16T07:28:31.679Z,98795.69
2022-09-16T07:30:34.596Z,98794.97
2022-09-16T07:32:36.966Z,98786.94
2022-09-16T07:34:41.495Z,98794.56
2022-09-16T07:36:49.184Z,98788.25
2022-09-16T07:38:52.832Z,98785.75
2022-09-16T07:40:55.354Z,98783.88
2022-09-16T07:42:58.324Z,98778.25
2022-09-16T07:45:00.486Z,98774.50
2022-09-16T07:47:02.831Z,98780.81
2022-09-16T07:49:08.236Z,98788.19
2022-09-16T07:51:13.389Z,98782.97
2022-09-16T07:53:18.187Z,98780.63
2022-09-16T07:55:20.773Z,98775.38
2022-09-16T07:57:25.519Z,98779.09
2022-09-16T07:59:27.956Z,98781.03
2022-09-16T08:01:33.502Z,98779.69
2022-09-16T08:03:37.597Z,98787.59
2022-09-16T08:05:42.860Z,98778.50
2022-09-16T08:07:45.137Z,98787.13
2022-09-16T08:09:50.842Z,98794.34
2022-09-16T08:11:53.999Z,98792.06
2022-09-16T08:13:59.025Z,98792.59
2022-09-16T08:16:18.685Z,98786.72
2022-09-16T08:18:21.050Z,98797.75
2022-09-16T08:20:24.744Z,98799.19
2022-09-16T08:22:27.365Z,98797.84
2022-09-16T08:24:29.468Z,98801.28
2022-09-16T08:26:32.156Z,98799.81
2022-09-16T08:28:45.273Z,98801.28
2022-09-16T08:30:53.581Z,98798.91
2022-09-16T08:32:59.670Z,98796.75
2022-09-16T08:35:02.503Z,98795.22
2022-09-16T08:37:07.265Z,98798.69
2022-09-16T08:39:11.975Z,98803.84
2022-09-16T08:41:14.057Z,98804.38
2022-09-16T08:43:30.335Z,98799.59
2022-09-16T08:45:54.528Z,98795.22
2022-09-16T08:48:08.268Z,98800.44
2022-09-16T08:50:29.334Z,98804.03
2022-09-16T08:52:35.583Z,98809.66
2022-09-16T08:54:52.792Z,98803.28
2022-09-16T08:57:00.481Z,98801.47
2022-09-16T08:59:10.558Z,98798.53
2022-09-16T09:01:23.548Z,98791.50
2022-09-16T09:03:39.122Z,98791.72
2022-09-16T09:05:54.148Z,98798.28
2022-09-16T09:08:34.896Z,98799.81
2022-09-16T09:10:51.631Z,98793.81
2022-09-16T09:13:05.981Z,98789.22
2022-09-16T09:15:22.879Z,98787.00
2022-09-16T09:18:15.713Z,98778.44
2022-09-16T09:20:44.227Z,98779.34
2022-09-16T09:23:18.169Z,98778.16
2022-09-16T09:25:29.883Z,98776.78
2022-09-16T09:27:36.627Z,98774.91
2022-09-16T09:30:23.694Z,98771.97
2022-09-16T09:32:53.577Z,98772.81
2022-09-16T09:35:05.920Z,98769.25
2022-09-16T09:37:42.083Z,98765.19
2022-09-16T09:40:15.066Z,98761.59
2022-09-16T09:42:23.738Z,98764.91
2022-09-16T09:44:50.686Z,98770.97
2022-09-16T09:46:57.741Z,98760.66
2022-09-16T09:49:11.825Z,98764.28
2022-09-16T09:51:52.486Z,98756.03
2022-09-16T09:54:01.452Z,98767.88
2022-09-16T09:56:24.575Z,98774.72
2022-09-16T09:58:38.084Z,98774.94
2022-09-16T10:00:40.396Z,98775.66
2022-09-16T10:02:49.526Z,98767.41
2022-09-16T10:04:52.342Z,98770.84
2022-09-16T10:06:57.142Z,98778.19
2022-09-16T10:09:00.389Z,98778.56
2022-09-16T10:11:14.915Z,98773.06
2022-09-16T10:13:18.005Z,98774.63
2022-09-16T10:15:32.023Z,98773.94
2022-09-16T10:17:34.501Z,98784.59
2022-09-16T10:20:00.287Z,98789.72
2022-09-16T10:22:10.018Z,98786.78
2022-09-16T10:24:34.945Z,98786.41
2022-09-16T10:26:41.342Z,98788.66
2022-09-16T10:29:03.906Z,98790.03
2022-09-16T10:31:08.876Z,98793.66
2022-09-16T10:33:20.412Z,98794.50
2022-09-16T10:35:29.180Z,98795.34
2022-09-16T10:37:31.273Z,98798.63
2022-09-16T10:39:34.232Z,98797.06
2022-09-16T10:41:47.813Z,98795.16
2022-09-16T10:43:53.772Z,98798.22
2022-09-16T10:45:56.434Z,98810.25
2022-09-16T10:48:07.059Z,98815.19
2022-09-16T10:50:18.450Z,98813.25
2022-09-16T10:52:26.634Z,98821.09
2022-09-16T10:54:28.865Z,98821.81
2022-09-16T10:56:48.809Z,98825.03
2022-09-16T10:59:09.775Z,98818.69
2022-09-16T11:01:12.722Z,98825.75
2022-09-16T11:03:42.934Z,98832.75
2022-09-16T11:06:15.939Z,98836.16
2022-09-16T11:08:27.220Z,98841.66
2022-09-16T11:10:38.108Z,98840.47
2022-09-16T11:13:04.578Z,98838.53
2022-09-16T11:15:24.332Z,98834.38
2022-09-16T11:17:44.590Z,98831.63
2022-09-16T11:19:54.819Z,98834.16
2022-09-16T11:22:21.039Z,98831.91
2022-09-16T11:25:10.564Z,98834.97
2022-09-16T11:27:18.172Z,98835.50
2022-09-16T11:29:52.402Z,98833.16
2022-09-16T11:32:09.218Z,98840.16
2022-09-16T11:35:02.876Z,98841.63
2022-09-16T11:37:22.230Z,98844.75
2022-09-16T11:39:39.108Z,98837.03
2022-09-16T11:42:20.105Z,98837.69
2022-09-16T11:44:31.479Z,98842.34
2022-09-16T11:46:47.095Z,98842.19
2022-09-16T11:49:20.415Z,98841.81
2022-09-16T11:52:01.301Z,98848.28
2022-09-16T11:54:33.990Z,98857.94
2022-09-16T11:56:52.459Z,98858.16
2022-09-16T11:59:03.727Z,98859.16
2022-09-16T12:01:32.033Z,98853.31
2022-09-16T12:03:56.780Z,98851.59
2022-09-16T12:06:06.111Z,98849.22
2022-09-16T12:08:13.513Z,98840.81
2022-09-16T12:10:38.366Z,98837.19
2022-09-16T12:12:46.794Z,98833.09
2022-09-16T12:14:55.925Z,98828.78
2022-09-16T12:17:11.838Z,98843.00
2022-09-16T12:19:22.317Z,98830.97
2022-09-16T12:21:30.234Z,98817.13
2022-09-16T12:23:36.552Z,98813.19
2022-09-16T12:25:46.427Z,98810.44
2022-09-16T12:27:54.802Z,98807.84
2022-09-16T12:30:06.174Z,98802.38
2022-09-16T12:32:31.813Z,98803.72
2022-09-16T12:34:44.488Z,98802.94
2022-09-16T12:36:56.314Z,98803.78
2022-09-16T12:38:59.789Z,98808.09
2022-09-16T12:41:28.814Z,98793.66
2022-09-16T12:44:06.555Z,98799.38
2022-09-16T12:46:19.037Z,98785.31
2022-09-16T12:48:24.003Z,98792.50
2022-09-16T12:50:45.010Z,98781.22
2022-09-16T12:53:29.020Z,98782.25
2022-09-16T12:55:59.158Z,98775.88
2022-09-16T12:58:34.220Z,98776.00
2022-09-16T13:00:55.456Z,98766.75
2022-09-16T13:03:27.876Z,98766.13
2022-09-16T13:05:37.531Z,98755.63
2022-09-16T13:07:40.504Z,98752.06
2022-09-16T13:09:45.003Z,98747.78
2022-09-16T13:14:26.086Z,98745.22
2022-09-16T13:17:31.397Z,98744.34
2022-09-16T13:19:40.205Z,98734.63
2022-09-16T13:21:44.924Z,98736.47
2022-09-16T13:23:52.488Z,98741.13
2022-09-16T13:26:01.492Z,98742.16
2022-09-16T13:28:41.910Z,98728.25
2022-09-16T13:30:44.316Z,98715.59
2022-09-16T13:32:58.232Z,98705.78
2022-09-16T13:35:02.080Z,98710.78
2022-09-16T13:37:15.716Z,98699.72
2022-09-16T13:39:35.740Z,98700.72
2022-09-16T13:41:39.583Z,98697.44
2022-09-16T13:43:47.442Z,98702.69
2022-09-16T13:45:49.676Z,98697.72
2022-09-16T13:47:52.125Z,98691.38
2022-09-16T13:49:59.414Z,98694.47
2022-09-16T13:52:11.891Z,98701.81
2022-09-16T13:54:19.846Z,98698.66
2022-09-16T13:56:21.844Z,98698.06
2022-09-16T13:58:43.529Z,98693.06
2022-09-16T14:01:09.008Z,98692.25
2022-09-16T14:03:42.131Z,98687.28
2022-09-16T14:06:03.107Z,98685.25
2022-09-16T14:08:19.665Z,98690.56
2022-09-16T14:10:59.069Z,98691.94
2022-09-16T14:13:17.271Z,98693.69
2022-09-16T14:15:22.647Z,98686.53
2022-09-16T14:17:32.386Z,98676.56
2022-09-16T14:19:37.947Z,98671.75
2022-09-16T14:21:40.121Z,98679.13
2022-09-16T14:23:42.157Z,98672.44
2022-09-16T14:25:44.207Z,98670.88
2022-09-16T14:27:46.841Z,98661.94
2022-09-16T14:29:57.015Z,98665.69
2022-09-16T14:31:59.432Z,98661.63
2022-09-16T14:34:07.655Z,98671.19
2022-09-16T14:36:44.320Z,98662.97
2022-09-16T14:39:07.014Z,98668.16
2022-09-16T14:41:12.847Z,98673.31
2022-09-16T14:43:19.313Z,98672.44
2022-09-16T14:45:22.462Z,98670.69
2022-09-16T14:47:47.410Z,98678.78
2022-09-16T14:49:56.970Z,98679.13
2022-09-16T14:52:04.376Z,98689.94
2022-09-16T14:54:12.783Z,98689.06
2022-09-16T14:56:20.100Z,98696.94
2022-09-16T14:58:24.718Z,98695.75
2022-09-16T15:00:33.928Z,98707.06
2022-09-16T15:03:05.219Z,98703.94
2022-09-16T15:05:23.492Z,98702.63
2022-09-16T15:07:34.079Z,98692.16
2022-09-16T15:09:47.735Z,98692.50
2022-09-16T15:11:55.726Z,98698.16
2022-09-16T15:13:59.077Z,98700.91
2022-09-16T15:16:09.400Z,98696.25
2022-09-16T15:18:27.388Z,98695.41
2022-09-16T15:20:33.492Z,98703.84
2022-09-16T15:22:40.833Z,98700.72
2022-09-16T15:24:44.178Z,98706.91
2022-09-16T15:26:49.417Z,98699.53
2022-09-16T15:29:04.483Z,98700.16
2022-09-16T15:31:08.262Z,98699.16
2022-09-16T15:33:42.140Z,98703.59
2022-09-16T15:35:52.721Z,98701.69
2022-09-16T15:37:56.043Z,98698.63
2022-09-16T15:40:29.099Z,98703.72
2022-09-16T15:42:31.821Z,98709.06
2022-09-16T15:44:37.749Z,98709.63
2022-09-16T15:46:48.336Z,98713.50
2022-09-16T15:48:58.516Z,98715.22
2022-09-16T15:51:09.598Z,98712.09
2022-09-16T15:53:41.999Z,98711.47
2022-09-16T15:55:56.886Z,98707.19
2022-09-16T15:58:12.105Z,98701.47
2022-09-16T16:00:16.377Z,98700.13
2022-09-16T16:02:26.514Z,98689.97
2022-09-16T16:04:32.018Z,98692.19
2022-09-16T16:06:57.238Z,98687.19
2022-09-16T16:09:02.754Z,98692.66
2022-09-16T16:11:16.557Z,98685.75
2022-09-16T16:13:19.086Z,98678.25
2022-09-16T16:15:25.797Z,98675.97
2022-09-16T16:17:28.200Z,98686.47
2022-09-16T16:19:30.975Z,98690.06
2022-09-16T16:21:38.880Z,98677.72
2022-09-16T16:23:41.188Z,98672.38
2022-09-16T16:25:43.488Z,98670.84
2022-09-16T16:27:45.895Z,98667.38
2022-09-16T16:29:48.350Z,98673.72
2022-09-16T16:32:02.000Z,98676.53
2022-09-16T16:34:07.224Z,98680.69
2022-09-16T16:36:09.566Z,98675.41
2022-09-16T16:38:11.711Z,98679.09
2022-09-16T16:40:14.400Z,98672.78
2022-09-16T16:42:17.142Z,98665.72
2022-09-16T16:44:24.451Z,98665.72
2022-09-16T16:46:28.051Z,98662.28
2022-09-16T16:48:31.046Z,98665.88
2022-09-16T16:50:33.238Z,98670.13
2022-09-16T16:52:56.520Z,98667.16
2022-09-16T16:54:59.375Z,98665.28
2022-09-16T16:57:04.369Z,98669.19
2022-09-16T16:59:12.339Z,98662.63
2022-09-16T17:01:19.210Z,98665.50
2022-09-16T17:03:22.862Z,98673.19
2022-09-16T17:05:25.185Z,98677.09
2022-09-16T17:07:28.298Z,98682.88
2022-09-16T17:09:31.059Z,98692.97
2022-09-16T17:11:34.180Z,98697.75
2022-09-16T17:13:38.514Z,98687.97
2022-09-16T17:15:41.587Z,98687.56
2022-09-16T17:17:44.517Z,98679.34
2022-09-16T17:19:46.634Z,98686.00
2022-09-16T17:21:53.876Z,98682.41
2022-09-16T17:23:56.677Z,98685.59
2022-09-16T17:26:01.906Z,98681.63
2022-09-16T17:28:04.016Z,98684.50
2022-09-16T17:30:06.828Z,98690.81
2022-09-16T17:32:08.710Z,98695.59
2022-09-16T17:34:14.122Z,98695.75
2022-09-16T17:36:19.790Z,98694.00
2022-09-16T17:38:22.284Z,98689.16
2022-09-16T17:40:24.885Z,98696.38
2022-09-16T17:42:27.433Z,98690.19
2022-09-16T17:44:29.859Z,98687.47
2022-09-16T17:46:34.633Z,98685.91
2022-09-16T17:48:37.878Z,98684.16
2022-09-16T17:50:40.521Z,98684.28
2022-09-16T17:52:43.649Z,98688.19
2022-09-16T17:54:46.246Z,98682.31
2022-09-16T17:56:48.699Z,98691.53
2022-09-16T17:58:53.057Z,98690.84
2022-09-16T18:00:55.483Z,98693.00
2022-09-16T18:02:57.780Z,98698.31
2022-09-16T18:05:00.416Z,98699.50
2022-09-16T18:07:02.836Z,98706.97
2022-09-16T18:09:07.490Z,98706.25
2022-09-16T18:11:11.567Z,98701.97
2022-09-16T18:13:13.851Z,98698.38
2022-09-16T18:15:16.050Z,98694.06
2022-09-16T18:17:18.938Z,98699.53
2022-09-16T18:19:21.143Z,98683.44
2022-09-16T18:21:24.715Z,98697.25
2022-09-16T18:23:30.000Z,98693.97
2022-09-16T18:25:34.386Z,98692.22
2022-09-16T18:27:39.573Z,98699.56
2022-09-16T18:29:44.568Z,98702.47
2022-09-16T18:31:48.445Z,98707.34
2022-09-16T18:33:54.949Z,98707.34
2022-09-16T18:36:06.251Z,98705.38
2022-09-16T18:38:13.139Z,98714.28
2022-09-16T18:40:16.945Z,98709.69
2022-09-16T18:42:19.150Z,98710.13
2022-09-16T18:44:25.365Z,98712.00
2022-09-16T18:46:30.709Z,98706.97
2022-09-16T18:48:33.003Z,98701.50
2022-09-16T18:50:37.974Z,98701.81
2022-09-16T18:52:40.665Z,98699.09
2022-09-16T18:54:45.711Z,98694.47
2022-09-16T18:56:48.306Z,98704.56
2022-09-16T18:59:17.298Z,98704.31
2022-09-16T19:01:27.226Z,98698.69
2022-09-16T19:03:29.800Z,98690.78
2022-09-16T19:05:32.141Z,98685.06
2022-09-16T19:07:34.353Z,98684.47
2022-09-16T19:09:39.972Z,98681.72
2022-09-16T19:11:42.450Z,98685.47
2022-09-16T19:13:45.247Z,98675.13
2022-09-16T19:15:47.992Z,98666.19
2022-09-16T19:17:51.123Z,98670.50
2022-09-16T19:19:53.426Z,98678.00
2022-09-16T19:21:55.853Z,98675.28
2022-09-16T19:24:03.631Z,98680.75
2022-09-16T19:26:06.250Z,98679.72
2022-09-16T19:28:09.085Z,98681.44
2022-09-16T19:30:11.835Z,98683.06
2022-09-16T19:32:14.450Z,98680.47
2022-09-16T19:34:17.378Z,98676.88
2022-09-16T19:36:25.037Z,98666.25
2022-09-16T19:38:29.107Z,98660.47
2022-09-16T19:40:31.735Z,98659.91
2022-09-16T19:42:34.065Z,98661.78
2022-09-16T19:44:36.314Z,98656.38
2022-09-16T19:46:40.249Z,98658.38
2022-09-16T19:48:45.081Z,98659.09
2022-09-16T19:50:53.542Z,98655.34
2022-09-16T19:52:55.932Z,98645.59
2022-09-16T19:54:58.069Z,98649.75
2022-09-16T19:57:03.211Z,98646.84
2022-09-16T19:59:06.164Z,98640.00
2022-09-16T20:01:10.267Z,98642.72
2022-09-16T20:03:12.677Z,98640.00
2022-09-16T20:05:15.615Z,98644.28
2022-09-16T20:07:20.500Z,98644.44
2022-09-16T20:09:22.876Z,98633.63
2022-09-16T20:11:27.749Z,98639.09
2022-09-16T20:13:31.475Z,98636.25
2022-09-16T20:15:33.540Z,98630.78
2022-09-16T20:17:38.447Z,98633.50
2022-09-16T20:19:40.790Z,98639.81
2022-09-16T20:21:43.563Z,98647.16
2022-09-16T20:23:46.733Z,98652.91
2022-09-16T20:25:56.170Z,98658.69
2022-09-16T20:28:10.812Z,98663.13
2022-09-16T20:30:13.438Z,98662.13
2022-09-16T20:32:16.007Z,98665.59
2022-09-16T20:34:18.500Z,98656.38
2022-09-16T20:36:22.964Z,98648.91
2022-09-16T20:38:25.210Z,98650.63
2022-09-16T20:40:27.820Z,98639.69
2022-09-16T20:42:33.760Z,98642.59
2022-09-16T20:44:36.239Z,98650.91
2022-09-16T20:46:43.108Z,98653.22
2022-09-16T20:48:45.738Z,98664.88
2022-09-16T20:50:50.363Z,98655.81
2022-09-16T20:52:52.973Z,98660.69
2022-09-16T20:54:55.051Z,98652.81
2022-09-16T20:56:58.113Z,98638.28
2022-09-16T20:59:00.754Z,98647.47
2022-09-16T21:01:08.373Z,98642.31
2022-09-16T21:03:14.408Z,98641.03
2022-09-16T21:05:16.673Z,98643.03
2022-09-16T21:07:19.045Z,98641.16
2022-09-16T21:09:21.242Z,98638.00
2022-09-16T21:11:26.460Z,98641.44
2022-09-16T21:13:28.608Z,98648.78
2022-09-16T21:15:31.675Z,98653.09
2022-09-16T21:17:34.509Z,98656.84
2022-09-16T21:19:36.707Z,98653.22
2022-09-16T21:21:41.258Z,98662.13
2022-09-16T21:23:47.343Z,98681.13
2022-09-16T21:25:49.879Z,98665.16
2022-09-16T21:27:52.536Z,98660.13
2022-09-16T21:29:54.660Z,98662.72
2022-09-16T21:31:57.596Z,98660.41
2022-09-16T21:34:03.296Z,98665.75
2022-09-16T21:36:07.144Z,98663.88
2022-09-16T21:38:09.376Z,98663.59
2022-09-16T21:40:13.074Z,98664.44
2022-09-16T21:42:15.627Z,98670.06
2022-09-16T21:44:18.281Z,98665.03
2022-09-16T21:46:23.247Z,98645.75
2022-09-16T21:48:27.730Z,98638.88
2022-09-16T21:50:31.464Z,98657.34
2022-09-16T21:52:34.120Z,98665.53
2022-09-16T21:54:36.392Z,98667.41
2022-09-16T21:56:40.497Z,98659.53
2022-09-16T21:58:43.204Z,98662.66
2022-09-16T22:00:45.218Z,98668.00
2022-09-16T22:02:47.479Z,98672.16
2022-09-16T22:04:49.572Z,98679.47
2022-09-16T22:06:55.760Z,98679.47
2022-09-16T22:09:02.125Z,98674.16
2022-09-16T22:11:07.744Z,98668.28
2022-09-16T22:13:10.295Z,98669.13
2022-09-16T22:15:16.759Z,98672.28
2022-09-16T22:17:18.856Z,98670.84
2022-09-16T22:19:20.864Z,98665.38
2022-09-16T22:21:24.613Z,98655.16
2022-09-16T22:23:26.952Z,98649.56
2022-09-16T22:25:29.034Z,98637.78
2022-09-16T22:27:31.077Z,98638.66
2022-09-16T22:29:33.767Z,98639.53
2022-09-16T22:31:38.315Z,98643.84
2022-09-16T22:33:42.752Z,98630.63
2022-09-16T22:35:44.916Z,98625.03
2022-09-16T22:37:48.946Z,98621.72
2022-09-16T22:39:51.609Z,98637.34
2022-09-16T22:41:54.300Z,98645.69
2022-09-16T22:43:56.755Z,98632.19
2022-09-16T22:46:06.312Z,98628.00
2022-09-16T22:48:08.425Z,98618.00
2022-09-16T22:50:13.279Z,98608.06
2022-09-16T22:52:15.418Z,98605.50
2022-09-16T22:54:19.765Z,98606.03
2022-09-16T22:56:28.673Z,98597.31
2022-09-16T22:58:32.080Z,98598.28
2022-09-16T23:00:38.521Z,98596.56
2022-09-16T23:02:42.517Z,98603.28
2022-09-16T23:04:44.787Z,98613.34
2022-09-16T23:06:47.463Z,98625.97
2022-09-16T23:08:49.859Z,98611.63
2022-09-16T23:10:52.538Z,98610.03
2022-09-16T23:12:55.572Z,98607.59
2022-09-16T23:14:58.980Z,98614.75
2022-09-16T23:17:00.966Z,98616.75
2022-09-16T23:19:06.052Z,98614.03
2022-09-16T23:21:13.318Z,98614.03
2022-09-16T23:23:15.344Z,98610.84
2022-09-16T23:25:17.358Z,98607.97
2022-09-16T23:27:19.423Z,98609.72
2022-09-16T23:29:24.129Z,98615.41
2022-09-16T23:31:29.760Z,98619.44
2022-09-16T23:33:32.354Z,98621.72
2022-09-16T23:35:35.021Z,98622.00
2022-09-16T23:37:37.355Z,98626.16
2022-09-16T23:39:41.687Z,98623.31
2022-09-16T23:41:45.241Z,98621.28
2022-09-16T23:43:49.309Z,98621.44
2022-09-16T23:45:52.106Z,98616.56
2022-09-16T23:47:54.432Z,98620.31
2022-09-16T23:49:56.666Z,98619.56
2022-09-16T23:51:59.002Z,98618.84
2022-09-16T23:54:01.197Z,98618.25
2022-09-16T23:56:07.760Z,98614.94
2022-09-16T23:58:14.122Z,98611.06
